Airfield :







YOU CAN JOIN US ON...

 
LOGIN :

Register | Disclaimer

   EN    FR    IT 

 









Legend :    VFR   Marginal VFR   IFR   Intensive IFR   Very Intensive IFR
Visi :
Ceiling :
>= 8 km
>= 3000ft
5 to 8 km
1000 to 3000 ft
1500m to 5 km
500 to 1000 ft
800 to 1500m
200 to 500 ft
< 800m
< 200 ft
Symbols :   Thunderstorms  Fog  Heavy snow  Heavy precipitations  Wind > 20 kt






- Airport Elevation : 100 ft
- IATA code : PSM


KPSM - Portsmouth International at Pease

CURRENT METAR :
  • 171156Z 26007KT 10SM FEW200 M02/M06 A3010 RMK AO2A SLP196 4/002 T10211059 10001 21028 52014

EXPIRED METARs :
  • 171056Z 23005KT 10SM BKN200 M02/M06 A3008 RMK AO2A SLP190 T10201060
  • 170956Z 23003KT 10SM BKN200 M02/M06 A3007 RMK AO2A SLP186 T10171056
  • 170856Z 26003KT 10SM BKN200 M02/M06 A3005 RMK AO2A SLP180 T10181062 50005

TAF KPSM
Valid from the 17 at 12:00 until the 18 at 12:00 UTC


171132Z 1712/1812 VRB04KT P6SM SCT150
FM171400 28005KT P6SM SKC
FM171800 30009G18KT P6SM SKC
FM180000 VRB04KT P6SM SKC



MET'MAP, your aeronautical weather chart ! - Copyright ORBIFLY December 2007 - Disclaimer

ORBIFLY MET'MAP TEAM :

Programming & Development : Alexandra Zaïnal
Concept & original design : Baudouin d'Aumeries
Assistance for programming : Marc-Olivier Méhu
Technical & hardware support : Manuel Goepfert

Contact : metmap@orbifly.com




SOURCES & CREDITS :

   NOAA